Time;durP1;ratioP1;P1;durP2;ratioP2;P2;SDS_P1;SDS_P2;PMS_P1;PMS_P2;Temp;Humidity;BMP_temperature;BMP_pressure;BME280_temperature;BME280_humidity;BME280_pressure;Samples;Min_cycle;Max_cycle;Signal;HPM_P1;HPM_P2
2023/06/13 00:00:04;;;;;;;1.98;1.75;;;;;;;-146.25;100.00;57403.91;5070094;28;20203;-82
2023/06/13 00:03:30;;;;;;;1.52;1.40;;;;;;;-146.25;100.00;57403.91;5069560;28;20228;-81
2023/06/13 00:06:57;;;;;;;2.20;2.10;;;;;;;-146.25;100.00;57403.91;5069222;28;20238;-83
2023/06/13 00:10:23;;;;;;;2.20;1.92;;;;;;;-146.25;100.00;57403.91;5069492;28;20282;-84
2023/06/13 00:13:49;;;;;;;1.70;1.60;;;;;;;-146.25;100.00;57403.91;5069288;28;20647;-83
2023/06/13 00:17:16;;;;;;;2.30;2.10;;;;;;;-146.25;100.00;57403.91;5069779;28;20584;-83
2023/06/13 00:20:41;;;;;;;2.00;1.90;;;;;;;-146.25;100.00;57403.91;5069506;28;20203;-84
2023/06/13 00:24:07;;;;;;;2.10;2.00;;;;;;;-146.25;100.00;57403.91;5069389;28;20208;-84
2023/06/13 00:27:33;;;;;;;1.95;1.85;;;;;;;-146.25;100.00;57403.91;5069525;28;20220;-83
2023/06/13 00:30:58;;;;;;;2.38;2.17;;;;;;;-146.25;100.00;57403.91;5069790;28;20197;-83
2023/06/13 00:34:25;;;;;;;1.98;1.88;;;;;;;-146.25;100.00;57403.91;5070036;28;20205;-84
2023/06/13 00:37:54;;;;;;;1.88;1.77;;;;;;;-146.25;100.00;57403.91;5069520;28;20231;-84
2023/06/13 00:41:20;;;;;;;2.65;2.45;;;;;;;-146.25;100.00;57403.91;5069101;28;20240;-83
2023/06/13 00:44:46;;;;;;;2.08;1.98;;;;;;;-146.25;100.00;57403.91;5069072;28;20201;-83
2023/06/13 00:48:11;;;;;;;2.00;1.90;;;;;;;-146.25;100.00;57403.91;5068998;28;20285;-84
2023/06/13 00:50:44;;;;;;;2.10;2.00;;;;;;;-146.25;100.00;57403.91;5069444;28;20660;-83
2023/06/13 00:53:17;;;;;;;2.50;2.30;;;;;;;-146.25;100.00;57403.91;5068890;28;20316;-85
2023/06/13 00:55:46;;;;;;;2.50;2.30;;;;;;;-146.25;100.00;57403.91;5069151;28;20274;-83
2023/06/13 00:58:13;;;;;;;1.90;1.80;;;;;;;-146.25;100.00;57403.91;5069136;28;20201;-82
2023/06/13 01:00:43;;;;;;;3.25;2.67;;;;;;;-146.25;100.00;57403.91;5069024;28;20250;-82
2023/06/13 01:03:15;;;;;;;2.40;2.30;;;;;;;-146.25;100.00;57403.91;5068852;28;20248;-84
2023/06/13 01:06:44;;;;;;;3.50;3.20;;;;;;;-146.25;100.00;57403.91;5069269;28;20295;-84
2023/06/13 01:10:11;;;;;;;2.30;2.10;;;;;;;-146.25;100.00;57403.91;5068665;28;20235;-85
2023/06/13 01:13:47;;;;;;;2.22;2.05;;;;;;;-146.25;100.00;57403.91;5069058;28;20688;-84
2023/06/13 01:17:17;;;;;;;2.30;1.80;;;;;;;-146.25;100.00;57403.91;5068962;28;20525;-83
2023/06/13 01:20:47;;;;;;;2.45;2.28;;;;;;;-146.25;100.00;57403.91;5072393;28;20643;-83
2023/06/13 01:24:27;;;;;;;2.88;2.42;;;;;;;-146.25;100.00;57403.91;5072062;28;20215;-82
2023/06/13 01:27:56;;;;;;;2.15;1.95;;;;;;;-146.25;100.00;57403.91;5071964;28;20187;-83
2023/06/13 01:31:24;;;;;;;1.80;1.70;;;;;;;-146.25;100.00;57403.91;5072100;28;20213;-83
2023/06/13 01:34:51;;;;;;;2.20;1.90;;;;;;;-146.25;100.00;57403.91;5072271;28;20263;-84
2023/06/13 01:38:18;;;;;;;1.58;1.25;;;;;;;-146.25;100.00;57403.91;5071868;28;20250;-83
2023/06/13 01:41:43;;;;;;;1.77;1.67;;;;;;;-146.25;100.00;57403.91;5071862;28;20212;-83
2023/06/13 01:45:11;;;;;;;2.15;2.05;;;;;;;-146.25;100.00;57403.91;5072036;28;20196;-86
2023/06/13 01:48:45;;;;;;;1.88;1.70;;;;;;;-146.25;100.00;57403.91;5071893;28;20700;-84
2023/06/13 01:52:21;;;;;;;3.20;2.17;;;;;;;-146.25;100.00;57403.91;5071781;28;20563;-84
2023/06/13 01:55:52;;;;;;;2.47;2.38;;;;;;;-146.25;100.00;57403.91;5071963;28;20270;-84
2023/06/13 01:59:25;;;;;;;2.13;1.90;;;;;;;-146.25;100.00;57403.91;5071890;28;20196;-83
2023/06/13 02:02:52;;;;;;;2.13;2.03;;;;;;;-146.25;100.00;57403.91;5071667;28;20240;-83
2023/06/13 02:06:18;;;;;;;2.65;2.20;;;;;;;-146.25;100.00;57403.91;5071639;28;20205;-84
2023/06/13 02:09:44;;;;;;;2.03;1.92;;;;;;;-146.25;100.00;57403.91;5071641;28;20195;-81
2023/06/13 02:13:10;;;;;;;2.90;1.40;;;;;;;-146.25;100.00;57403.91;5071327;28;20392;-84
2023/06/13 02:16:39;;;;;;;1.90;1.80;;;;;;;-146.25;100.00;57403.91;5071758;28;20538;-84
2023/06/13 02:20:06;;;;;;;2.87;1.90;;;;;;;-146.25;100.00;57403.91;5071724;28;20228;-84
2023/06/13 02:23:32;;;;;;;2.20;2.07;;;;;;;-146.25;100.00;57403.91;5071180;28;20286;-82
2023/06/13 02:26:58;;;;;;;1.60;1.50;;;;;;;-146.25;100.00;57403.91;5071380;28;20256;-84
2023/06/13 02:30:24;;;;;;;1.73;1.63;;;;;;;-146.25;100.00;57403.91;5071479;28;20318;-84
2023/06/13 02:33:51;;;;;;;2.85;1.70;;;;;;;-146.25;100.00;57403.91;5081715;28;20230;-82
2023/06/13 02:37:18;;;;;;;2.20;2.10;;;;;;;-146.25;100.00;57403.91;5084997;28;20204;-83
2023/06/13 02:40:43;;;;;;;6.87;1.93;;;;;;;-146.25;100.00;57403.91;5071440;28;20201;-84
2023/06/13 02:44:09;;;;;;;1.50;1.40;;;;;;;-146.25;100.00;57403.91;5077176;28;20241;-84
2023/06/13 02:47:34;;;;;;;3.23;2.17;;;;;;;-146.25;100.00;57403.91;5081884;28;20869;-84
2023/06/13 02:51:01;;;;;;;1.53;1.43;;;;;;;-146.25;100.00;57403.91;5084788;28;20222;-84
2023/06/13 02:54:26;;;;;;;2.05;1.95;;;;;;;-146.25;100.00;57403.91;5089727;28;20406;-83
2023/06/13 02:57:52;;;;;;;2.00;1.77;;;;;;;-146.25;100.00;57403.91;5078967;28;20234;-84
2023/06/13 03:01:18;;;;;;;1.98;1.73;;;;;;;-146.25;100.00;57403.91;5090112;28;20236;-83
2023/06/13 03:04:44;;;;;;;1.97;1.87;;;;;;;-146.25;100.00;57403.91;5089101;28;20308;-83
2023/06/13 03:08:12;;;;;;;1.60;1.50;;;;;;;-146.25;100.00;57403.91;5089512;28;20229;-84
2023/06/13 03:11:38;;;;;;;1.95;1.80;;;;;;;-146.25;100.00;57403.91;5088855;28;20230;-83
2023/06/13 03:15:03;;;;;;;2.85;2.65;;;;;;;-146.25;100.00;57403.91;5089414;28;20715;-83
2023/06/13 03:18:29;;;;;;;6.07;2.70;;;;;;;-146.25;100.00;57403.91;5089146;28;20237;-84
2023/06/13 03:21:55;;;;;;;3.53;2.10;;;;;;;-146.25;100.00;57403.91;5089085;28;20222;-83
2023/06/13 03:25:22;;;;;;;3.35;2.63;;;;;;;-146.25;100.00;57403.91;5082094;28;20714;-84
2023/06/13 03:28:48;;;;;;;2.85;2.65;;;;;;;-146.25;100.00;57403.91;5084090;28;20242;-82
2023/06/13 03:32:15;;;;;;;2.33;2.22;;;;;;;-146.25;100.00;57403.91;5077312;28;20279;-83
2023/06/13 03:35:41;;;;;;;2.00;1.88;;;;;;;-146.25;100.00;57403.91;5080800;28;20557;-82
2023/06/13 03:39:07;;;;;;;2.25;2.15;;;;;;;-146.25;100.00;57403.91;5084402;28;20219;-84
2023/06/13 03:42:33;;;;;;;1.77;1.70;;;;;;;-146.25;100.00;57403.91;5087947;28;20265;-83
2023/06/13 03:46:00;;;;;;;2.90;2.53;;;;;;;-146.25;100.00;57403.91;5089484;28;20224;-82
2023/06/13 03:49:26;;;;;;;2.42;2.22;;;;;;;-146.25;100.00;57403.91;5088388;28;20221;-83
2023/06/13 03:52:52;;;;;;;2.40;2.30;;;;;;;-146.25;100.00;57403.91;5088673;28;20631;-83
2023/06/13 03:56:27;;;;;;;3.90;2.60;;;;;;;-146.25;100.00;57403.91;5087681;28;20343;-81
2023/06/13 03:59:55;;;;;;;2.15;2.05;;;;;;;-146.25;100.00;57403.91;5068004;28;20226;-84
2023/06/13 04:03:20;;;;;;;2.53;2.03;;;;;;;-146.25;100.00;57403.91;5068420;28;20301;-83
2023/06/13 04:06:48;;;;;;;8.18;3.13;;;;;;;-146.25;100.00;57403.91;5068181;28;20229;-83
2023/06/13 04:10:14;;;;;;;3.33;3.05;;;;;;;-146.25;100.00;57403.91;5067787;28;20248;-83
2023/06/13 04:13:41;;;;;;;4.30;3.08;;;;;;;-146.25;100.00;57403.91;5089124;28;20225;-85
2023/06/13 04:17:09;;;;;;;2.83;2.67;;;;;;;-146.25;100.00;57403.91;5087677;28;20303;-86
2023/06/13 04:20:35;;;;;;;4.63;2.72;;;;;;;-146.25;100.00;57403.91;5075700;28;20249;-83
2023/06/13 04:24:01;;;;;;;3.00;2.80;;;;;;;-146.25;100.00;57403.91;5076789;28;20283;-82
2023/06/13 04:27:28;;;;;;;3.00;2.63;;;;;;;-146.25;100.00;57403.91;5078982;28;20225;-83
2023/06/13 04:30:56;;;;;;;2.78;2.58;;;;;;;-146.25;100.00;57403.91;5087754;28;20670;-84
2023/06/13 04:34:24;;;;;;;2.97;2.83;;;;;;;-146.25;100.00;57403.91;5091973;28;20278;-84
2023/06/13 04:37:51;;;;;;;3.30;3.05;;;;;;;-146.25;100.00;57403.91;5088997;28;20224;-82
2023/06/13 04:41:18;;;;;;;6.72;3.80;;;;;;;-146.25;100.00;57403.91;5086657;28;20250;-82
2023/06/13 04:44:45;;;;;;;3.97;3.55;;;;;;;-146.25;100.00;57403.91;5088420;28;20236;-82
2023/06/13 04:48:11;;;;;;;6.15;3.90;;;;;;;-146.25;100.00;57403.91;5087772;28;20279;-84
2023/06/13 04:51:40;;;;;;;4.32;3.75;;;;;;;-146.25;100.00;57403.91;5087891;28;20240;-85
2023/06/13 04:55:06;;;;;;;6.18;3.88;;;;;;;-146.25;100.00;57403.91;5092159;28;20306;-85
2023/06/13 04:58:32;;;;;;;4.88;3.10;;;;;;;-146.25;100.00;57403.91;5091647;28;20244;-82
2023/06/13 05:01:43;;;;;;;3.83;3.55;;;;;;;-146.25;100.00;57403.91;5091016;28;20304;-84
2023/06/13 05:05:10;;;;;;;4.20;3.83;;;;;;;-146.25;100.00;57403.91;5091993;28;20236;-82
2023/06/13 05:08:37;;;;;;;3.85;3.55;;;;;;;-146.25;100.00;57403.91;5091854;28;20267;-83
2023/06/13 05:12:02;;;;;;;3.95;3.63;;;;;;;-146.25;100.00;57403.91;5090167;28;20217;-84
2023/06/13 05:14:37;;;;;;;4.03;3.70;;;;;;;-146.25;100.00;57403.91;5091765;28;20237;-84
2023/06/13 05:17:06;;;;;;;4.85;4.07;;;;;;;-146.25;100.00;57403.91;5091025;28;20324;-84
2023/06/13 05:19:34;;;;;;;4.93;4.10;;;;;;;-146.25;100.00;57403.91;5091361;28;20225;-83
2023/06/13 05:22:03;;;;;;;4.60;3.90;;;;;;;-146.25;100.00;57403.91;5090478;28;20220;-83
2023/06/13 05:24:32;;;;;;;3.70;3.40;;;;;;;-146.25;100.00;57403.91;5090501;28;20716;-85
2023/06/13 05:26:59;;;;;;;6.25;4.72;;;;;;;-146.25;100.00;57403.91;5079162;28;20294;-85
2023/06/13 05:29:27;;;;;;;3.95;3.72;;;;;;;-146.25;100.00;57403.91;5071292;28;20226;-85
2023/06/13 05:31:57;;;;;;;4.40;4.10;;;;;;;-146.25;100.00;57403.91;5070292;28;20232;-84
2023/06/13 05:34:25;;;;;;;4.50;3.88;;;;;;;-146.25;100.00;57403.91;5087102;28;20290;-83
2023/06/13 05:36:53;;;;;;;4.90;4.50;;;;;;;-146.25;100.00;57403.91;5090472;28;20628;-85
2023/06/13 05:39:20;;;;;;;4.07;3.67;;;;;;;-146.25;100.00;57403.91;5090437;28;20229;-84
2023/06/13 05:41:49;;;;;;;7.30;4.07;;;;;;;-146.25;100.00;57403.91;5090229;28;20225;-85
2023/06/13 05:44:16;;;;;;;3.90;3.60;;;;;;;-146.25;100.00;57403.91;5090903;28;20217;-83
2023/06/13 05:46:44;;;;;;;4.22;3.83;;;;;;;-146.25;100.00;57403.91;5090157;28;20565;-83
2023/06/13 05:49:12;;;;;;;4.20;3.63;;;;;;;-146.25;100.00;57403.91;5090710;28;20218;-84
2023/06/13 05:51:39;;;;;;;9.02;3.05;;;;;;;-146.25;100.00;57403.91;5090465;28;20224;-85
2023/06/13 05:54:06;;;;;;;4.47;3.40;;;;;;;-146.25;100.00;57403.91;5089633;28;20226;-85
2023/06/13 05:56:36;;;;;;;2.95;2.75;;;;;;;-146.25;100.00;57403.91;5081633;28;20687;-85
2023/06/13 05:59:04;;;;;;;5.22;3.05;;;;;;;-146.25;100.00;57403.91;5069819;28;20238;-85
2023/06/13 06:01:31;;;;;;;3.40;3.10;;;;;;;-146.25;100.00;57403.91;5069237;28;20319;-84
2023/06/13 06:03:58;;;;;;;3.95;3.60;;;;;;;-146.25;100.00;57403.91;5082041;28;20749;-84
2023/06/13 06:06:26;;;;;;;5.82;3.80;;;;;;;-146.25;100.00;57403.91;5090722;28;20283;-83
2023/06/13 06:08:53;;;;;;;5.60;4.10;;;;;;;-146.25;100.00;57403.91;5089193;28;20229;-85
2023/06/13 06:11:20;;;;;;;3.58;3.28;;;;;;;-146.25;100.00;57403.91;5090135;28;20257;-84
2023/06/13 06:13:47;;;;;;;4.40;3.28;;;;;;;-146.25;100.00;57403.91;5089985;28;20218;-85
2023/06/13 06:16:15;;;;;;;4.85;3.22;;;;;;;-146.25;100.00;57403.91;5090020;28;20238;-85
2023/06/13 06:18:43;;;;;;;3.70;3.10;;;;;;;-146.25;100.00;57403.91;5089934;28;20229;-85
2023/06/13 06:21:10;;;;;;;6.40;3.25;;;;;;;-146.25;100.00;57403.91;5089958;28;20582;-84
2023/06/13 06:23:39;;;;;;;3.38;3.08;;;;;;;-146.25;100.00;57403.91;5089464;28;20221;-83
2023/06/13 06:26:06;;;;;;;4.40;4.07;;;;;;;-146.25;100.00;57403.91;5085571;28;20232;-84
2023/06/13 06:28:33;;;;;;;4.55;3.83;;;;;;;-146.25;100.00;57403.91;5070616;28;20226;-85
2023/06/13 06:31:01;;;;;;;4.85;3.00;;;;;;;-146.25;100.00;57403.91;5081509;28;20272;-85
2023/06/13 06:33:29;;;;;;;5.22;3.95;;;;;;;-146.25;100.00;57403.91;5097400;28;20286;-85
2023/06/13 06:35:57;;;;;;;3.40;3.03;;;;;;;-146.25;100.00;57403.91;5096707;28;20321;-84
2023/06/13 06:38:24;;;;;;;6.10;3.95;;;;;;;-146.25;100.00;57403.91;5090381;28;20254;-84
2023/06/13 06:40:51;;;;;;;3.60;3.33;;;;;;;-146.25;100.00;57403.91;5090969;28;20224;-85
2023/06/13 06:43:21;;;;;;;4.03;3.65;;;;;;;-146.25;100.00;57403.91;5091858;28;20202;-85
2023/06/13 06:45:48;;;;;;;4.53;3.97;;;;;;;-146.25;100.00;57403.91;5090806;28;20198;-85
2023/06/13 06:48:17;;;;;;;4.57;4.18;;;;;;;-146.25;100.00;57403.91;5093582;28;20190;-84
2023/06/13 06:50:45;;;;;;;4.20;3.90;;;;;;;-146.25;100.00;57403.91;5090879;28;20190;-84
2023/06/13 06:53:12;;;;;;;4.03;3.70;;;;;;;-146.25;100.00;57403.91;5090435;28;20225;-84
2023/06/13 06:55:40;;;;;;;5.60;3.95;;;;;;;-146.25;100.00;57403.91;5090344;28;20662;-85
2023/06/13 06:58:07;;;;;;;5.40;4.00;;;;;;;-146.25;100.00;57403.91;5090710;28;20670;-86
2023/06/13 07:00:34;;;;;;;5.07;4.57;;;;;;;-146.25;100.00;57403.91;5090322;28;20207;-84
2023/06/13 07:03:02;;;;;;;6.40;5.00;;;;;;;-146.25;100.00;57403.91;5090221;28;20229;-84
2023/06/13 07:05:30;;;;;;;5.60;3.70;;;;;;;-146.25;100.00;57403.91;5090498;28;20865;-85
2023/06/13 07:08:01;;;;;;;5.97;4.13;;;;;;;-146.25;100.00;57403.91;5089656;28;20251;-85
2023/06/13 07:10:28;;;;;;;4.35;3.95;;;;;;;-146.25;100.00;57403.91;5091537;28;20255;-86
2023/06/13 07:12:57;;;;;;;4.78;4.32;;;;;;;-146.25;100.00;57403.91;5090420;28;20215;-86
2023/06/13 07:15:25;;;;;;;5.55;4.25;;;;;;;-146.25;100.00;57403.91;5089346;28;20236;-84
2023/06/13 07:17:53;;;;;;;4.32;3.92;;;;;;;-146.25;100.00;57403.91;5088793;28;20305;-84
2023/06/13 07:20:21;;;;;;;4.20;3.78;;;;;;;-146.25;100.00;57403.91;5088665;28;20294;-86
2023/06/13 07:22:48;;;;;;;4.15;3.63;;;;;;;-146.25;100.00;57403.91;5087910;28;20186;-86
2023/06/13 07:25:16;;;;;;;4.28;3.97;;;;;;;-146.25;100.00;57403.91;5088362;28;20255;-84
2023/06/13 07:27:43;;;;;;;4.40;4.00;;;;;;;-146.25;100.00;57403.91;5088612;28;20224;-86
2023/06/13 07:30:11;;;;;;;4.30;3.83;;;;;;;-146.25;100.00;57403.91;5087910;28;20647;-85
2023/06/13 07:32:39;;;;;;;4.82;4.28;;;;;;;-146.25;100.00;57403.91;5089646;28;20213;-86
2023/06/13 07:35:07;;;;;;;4.03;3.70;;;;;;;-146.25;100.00;57403.91;5089579;28;20291;-84
2023/06/13 07:37:35;;;;;;;6.72;4.70;;;;;;;-146.25;100.00;57403.91;5089534;28;20220;-84
2023/06/13 07:40:04;;;;;;;4.95;3.90;;;;;;;-146.25;100.00;57403.91;5090419;28;20290;-87
2023/06/13 07:42:33;;;;;;;4.13;3.63;;;;;;;-146.25;100.00;57403.91;5089998;28;20649;-84
2023/06/13 07:44:59;;;;;;;5.05;4.10;;;;;;;-146.25;100.00;57403.91;5089428;28;20198;-84
2023/06/13 07:47:28;;;;;;;4.57;3.97;;;;;;;-146.25;100.00;57403.91;5089630;28;20678;-85
2023/06/13 07:49:55;;;;;;;6.07;3.90;;;;;;;-146.25;100.00;57403.91;5090316;28;20202;-85
2023/06/13 07:52:22;;;;;;;9.40;5.82;;;;;;;-146.25;100.00;57403.91;5089131;28;20194;-86
2023/06/13 07:54:49;;;;;;;5.15;3.60;;;;;;;-146.25;100.00;57403.91;5089427;28;20202;-86
2023/06/13 07:57:17;;;;;;;4.15;3.78;;;;;;;-146.25;100.00;57403.91;5089567;28;20639;-87
2023/06/13 07:59:45;;;;;;;7.57;4.45;;;;;;;-146.25;100.00;57403.91;5089242;28;20271;-85
2023/06/13 08:02:13;;;;;;;6.22;5.40;;;;;;;-146.25;100.00;57403.91;5089323;28;20234;-86
2023/06/13 08:04:43;;;;;;;5.32;3.67;;;;;;;-146.25;100.00;57403.91;5090144;28;20281;-84
2023/06/13 08:07:11;;;;;;;4.65;4.22;;;;;;;-146.25;100.00;57403.91;5089156;28;20198;-85
2023/06/13 08:09:38;;;;;;;4.20;3.80;;;;;;;-146.25;100.00;57403.91;5090132;28;20198;-85
2023/06/13 08:12:09;;;;;;;7.78;4.35;;;;;;;-146.25;100.00;57403.91;5089449;28;20328;-86
2023/06/13 08:14:40;;;;;;;4.40;4.00;;;;;;;-146.25;100.00;57403.91;5089055;28;20198;-84
2023/06/13 08:17:09;;;;;;;5.32;4.18;;;;;;;-146.25;100.00;57403.91;5091404;28;20209;-84
2023/06/13 08:19:39;;;;;;;5.07;4.40;;;;;;;-146.25;100.00;57403.91;5089947;28;20229;-85
2023/06/13 08:22:07;;;;;;;4.80;4.40;;;;;;;-146.25;100.00;57403.91;5088717;28;20221;-84
2023/06/13 08:24:34;;;;;;;7.53;3.80;;;;;;;-146.25;100.00;57403.91;5089999;28;20194;-86
2023/06/13 08:27:03;;;;;;;4.75;4.20;;;;;;;-146.25;100.00;57403.91;5091713;28;20204;-86
2023/06/13 08:29:30;;;;;;;5.90;4.70;;;;;;;-146.25;100.00;57403.91;5092914;28;20614;-86
2023/06/13 08:31:57;;;;;;;5.68;4.78;;;;;;;-146.25;100.00;57403.91;5093696;28;20194;-84
2023/06/13 08:34:28;;;;;;;4.38;4.00;;;;;;;-146.25;100.00;57403.91;5093563;28;20584;-86
2023/06/13 08:36:57;;;;;;;4.97;4.40;;;;;;;-146.25;100.00;57403.91;5092300;28;20286;-85
2023/06/13 08:39:25;;;;;;;5.78;4.38;;;;;;;-146.25;100.00;57403.91;5093557;28;20278;-86
2023/06/13 08:41:56;;;;;;;4.72;4.32;;;;;;;-146.25;100.00;57403.91;5093377;28;20285;-85
2023/06/13 08:44:28;;;;;;;5.20;4.68;;;;;;;-146.25;100.00;57403.91;5092655;28;20222;-84
2023/06/13 08:46:55;;;;;;;4.85;4.32;;;;;;;-146.25;100.00;57403.91;5093149;28;20291;-86
2023/06/13 08:49:22;;;;;;;4.05;3.70;;;;;;;-146.25;100.00;57403.91;5093410;28;20267;-85
2023/06/13 08:51:55;;;;;;;3.75;3.45;;;;;;;-146.25;100.00;57403.91;5093215;28;20232;-84
2023/06/13 08:54:27;;;;;;;4.15;3.85;;;;;;;-146.25;100.00;57403.91;5093515;28;20319;-84
2023/06/13 08:56:56;;;;;;;4.03;3.65;;;;;;;-146.25;100.00;57403.91;5093435;28;20218;-85
2023/06/13 08:59:30;;;;;;;4.03;3.60;;;;;;;-146.25;100.00;57403.91;5102534;28;20198;-84
2023/06/13 09:01:58;;;;;;;3.58;3.25;;;;;;;-146.25;100.00;57403.91;5092992;28;20732;-84
2023/06/13 09:04:29;;;;;;;5.05;4.55;;;;;;;-146.25;100.00;57403.91;5092888;28;20658;-85
2023/06/13 09:06:59;;;;;;;4.38;3.97;;;;;;;-146.25;100.00;57403.91;5092585;28;20697;-85
2023/06/13 09:09:28;;;;;;;6.97;4.25;;;;;;;-146.25;100.00;57403.91;5093571;28;20201;-85
2023/06/13 09:11:56;;;;;;;5.03;4.55;;;;;;;-146.25;100.00;57403.91;5093211;28;20221;-86
2023/06/13 09:14:24;;;;;;;4.72;4.03;;;;;;;-146.25;100.00;57403.91;5091724;28;20282;-84
2023/06/13 09:16:54;;;;;;;3.28;3.08;;;;;;;-146.25;100.00;57403.91;5093956;28;20237;-84
2023/06/13 09:19:24;;;;;;;2.67;2.47;;;;;;;-146.25;100.00;57403.91;5093803;28;20344;-86
2023/06/13 09:21:51;;;;;;;2.30;2.17;;;;;;;-146.25;100.00;57403.91;5093525;28;20631;-84
2023/06/13 09:24:22;;;;;;;2.25;2.10;;;;;;;-146.25;100.00;57403.91;5093641;28;20201;-85
2023/06/13 09:26:50;;;;;;;2.13;2.00;;;;;;;-146.25;100.00;57403.91;5093861;28;20240;-85
2023/06/13 09:29:17;;;;;;;2.45;2.15;;;;;;;-146.25;100.00;57403.91;5092747;28;20286;-84
2023/06/13 09:31:47;;;;;;;3.05;1.60;;;;;;;-146.25;100.00;57403.91;5093755;28;20218;-85
2023/06/13 09:34:16;;;;;;;2.25;2.05;;;;;;;-146.25;100.00;57403.91;5091813;28;20574;-85
2023/06/13 09:36:53;;;;;;;2.20;2.00;;;;;;;-146.25;100.00;57403.91;5092998;28;20320;-86
2023/06/13 09:39:27;;;;;;;1.80;1.70;;;;;;;-146.25;100.00;57403.91;5092156;28;20189;-84
2023/06/13 09:41:55;;;;;;;3.65;2.28;;;;;;;-146.25;100.00;57403.91;5091628;28;20202;-86
2023/06/13 09:44:25;;;;;;;2.05;1.95;;;;;;;-146.25;100.00;57403.91;5092308;28;20567;-86
2023/06/13 09:46:53;;;;;;;2.00;1.90;;;;;;;-146.25;100.00;57403.91;5093559;28;20225;-86
2023/06/13 09:49:23;;;;;;;1.92;1.83;;;;;;;-146.25;100.00;57403.91;5093664;28;20205;-85
2023/06/13 09:51:52;;;;;;;1.85;1.75;;;;;;;-146.25;100.00;57403.91;5091752;28;20198;-85
2023/06/13 09:54:19;;;;;;;1.83;1.73;;;;;;;-146.25;100.00;57403.91;5091785;28;20212;-86
2023/06/13 09:56:50;;;;;;;2.17;2.03;;;;;;;-146.25;100.00;57403.91;5090923;28;20607;-84
2023/06/13 09:59:20;;;;;;;2.00;1.90;;;;;;;-146.25;100.00;57403.91;5091986;28;20587;-85
2023/06/13 10:01:49;;;;;;;4.43;1.63;;;;;;;-146.25;100.00;57403.91;5091462;28;20309;-86
2023/06/13 10:04:18;;;;;;;2.22;2.10;;;;;;;-146.25;100.00;57403.91;5091092;28;20190;-85
2023/06/13 10:06:47;;;;;;;2.58;2.38;;;;;;;-146.25;100.00;57403.91;5092176;28;20194;-86
2023/06/13 10:09:16;;;;;;;2.28;1.88;;;;;;;-146.25;100.00;57403.91;5092610;28;20194;-86
2023/06/13 10:11:49;;;;;;;2.08;1.98;;;;;;;-146.25;100.00;57403.91;5091936;28;20222;-86
2023/06/13 10:14:21;;;;;;;3.10;2.20;;;;;;;-146.25;100.00;57403.91;5112962;28;20216;-86
2023/06/13 10:16:55;;;;;;;3.13;2.22;;;;;;;-146.25;100.00;57403.91;5108924;28;20268;-85
2023/06/13 10:19:24;;;;;;;2.92;2.75;;;;;;;-146.25;100.00;57403.91;5090453;28;20198;-86
2023/06/13 10:21:53;;;;;;;2.83;2.50;;;;;;;-146.25;100.00;57403.91;5091105;28;20285;-84
2023/06/13 10:24:21;;;;;;;2.42;2.33;;;;;;;-146.25;100.00;57403.91;5091314;28;20213;-85
2023/06/13 10:26:54;;;;;;;2.22;2.13;;;;;;;-146.25;100.00;57403.91;5090410;28;20451;-85
2023/06/13 10:29:47;;;;;;;2.63;2.40;;;;;;;-146.25;100.00;57403.91;5090543;28;20269;-85
2023/06/13 10:32:31;;;;;;;4.53;3.20;;;;;;;-146.25;100.00;57403.91;5090842;28;20204;-84
2023/06/13 10:35:20;;;;;;;2.40;2.30;;;;;;;-146.25;100.00;57403.91;5090108;28;20198;-86
2023/06/13 10:38:18;;;;;;;2.30;2.20;;;;;;;-146.25;100.00;57403.91;5090716;28;20242;-85
2023/06/13 10:41:16;;;;;;;2.95;2.75;;;;;;;-146.25;100.00;57403.91;5091802;28;20186;-86
2023/06/13 10:43:49;;;;;;;3.72;2.65;;;;;;;-146.25;100.00;57403.91;5065930;28;20203;-85
2023/06/13 10:46:18;;;;;;;2.88;2.63;;;;;;;-146.25;100.00;57403.91;5092218;28;20641;-86
2023/06/13 10:48:48;;;;;;;2.70;2.45;;;;;;;-146.25;100.00;57403.91;5090965;28;20195;-84
2023/06/13 10:51:20;;;;;;;2.75;2.58;;;;;;;-146.25;100.00;57403.91;5090551;28;20202;-86
2023/06/13 10:53:52;;;;;;;2.42;2.30;;;;;;;-146.25;100.00;57403.91;5094000;28;20224;-85
2023/06/13 10:56:19;;;;;;;3.92;2.65;;;;;;;-146.25;100.00;57403.91;5095813;28;20360;-85
2023/06/13 10:58:47;;;;;;;2.63;2.42;;;;;;;-146.25;100.00;57403.91;5096140;28;20296;-86
2023/06/13 11:01:35;;;;;;;3.10;2.90;;;;;;;-146.25;100.00;57403.91;5096096;28;20755;-84
2023/06/13 11:04:14;;;;;;;2.38;2.28;;;;;;;-146.25;100.00;57403.91;5096217;28;20205;-85
2023/06/13 11:06:43;;;;;;;3.33;2.80;;;;;;;-146.25;100.00;57403.91;5094732;28;20220;-86
2023/06/13 11:09:16;;;;;;;2.53;2.42;;;;;;;-146.25;100.00;57403.91;5096235;28;20201;-85
2023/06/13 11:11:50;;;;;;;3.08;2.88;;;;;;;-146.25;100.00;57403.91;5094271;28;20289;-84
2023/06/13 11:14:23;;;;;;;3.30;3.00;;;;;;;-146.25;100.00;57403.91;5094939;28;20190;-85
2023/06/13 11:16:51;;;;;;;3.15;2.85;;;;;;;-146.25;100.00;57403.91;5094873;28;20261;-87
2023/06/13 11:19:22;;;;;;;3.15;2.95;;;;;;;-146.25;100.00;57403.91;5093735;28;20201;-85
2023/06/13 11:22:21;;;;;;;3.38;3.08;;;;;;;-146.25;100.00;57403.91;5096031;28;20205;-85
2023/06/13 11:24:52;;;;;;;3.58;2.97;;;;;;;-146.25;100.00;57403.91;5098938;28;20194;-85
2023/06/13 11:27:20;;;;;;;5.72;4.35;;;;;;;-146.25;100.00;57403.91;5101425;28;20222;-85
2023/06/13 11:29:51;;;;;;;4.25;3.88;;;;;;;-146.25;100.00;57403.91;5097481;28;20670;-86
2023/06/13 11:32:22;;;;;;;3.30;3.00;;;;;;;-146.25;100.00;57403.91;5100140;28;20277;-85
2023/06/13 11:34:55;;;;;;;3.33;3.03;;;;;;;-146.25;100.00;57403.91;5099456;28;20224;-86
2023/06/13 11:37:29;;;;;;;5.38;3.17;;;;;;;-146.25;100.00;57403.91;5098594;28;20258;-85
2023/06/13 11:39:57;;;;;;;4.32;3.15;;;;;;;-146.25;100.00;57403.91;5097802;28;20197;-85
2023/06/13 11:42:26;;;;;;;6.57;3.70;;;;;;;-146.25;100.00;57403.91;5096999;28;20208;-85
2023/06/13 11:44:55;;;;;;;3.97;2.92;;;;;;;-146.25;100.00;57403.91;5095912;28;20285;-84
2023/06/13 11:47:28;;;;;;;3.10;2.88;;;;;;;-146.25;100.00;57403.91;5095257;28;20858;-84
2023/06/13 11:49:56;;;;;;;3.17;2.90;;;;;;;-146.25;100.00;57403.91;5099478;28;20247;-85
2023/06/13 11:52:24;;;;;;;2.95;2.75;;;;;;;-146.25;100.00;57403.91;5102461;28;20266;-85
2023/06/13 11:54:52;;;;;;;2.97;2.70;;;;;;;-146.25;100.00;57403.91;5102171;28;20209;-86
2023/06/13 11:57:19;;;;;;;4.28;3.75;;;;;;;-146.25;100.00;57403.91;5097866;28;20273;-84
2023/06/13 11:59:46;;;;;;;3.80;3.33;;;;;;;-146.25;100.00;57403.91;5102589;28;20262;-83
2023/06/13 12:02:15;;;;;;;8.20;5.53;;;;;;;-146.25;100.00;57403.91;5093609;28;20493;-81
2023/06/13 12:04:44;;;;;;;9.10;4.65;;;;;;;-146.25;100.00;57403.91;5090582;28;20297;-82
2023/06/13 12:07:13;;;;;;;4.88;4.22;;;;;;;-146.25;100.00;57403.91;5089932;28;20244;-82
2023/06/13 12:09:43;;;;;;;5.22;3.85;;;;;;;-146.25;100.00;57403.91;5089814;28;20202;-80
2023/06/13 12:12:12;;;;;;;11.35;4.65;;;;;;;-146.25;100.00;57403.91;5089698;28;20654;-79
2023/06/13 12:14:39;;;;;;;10.43;4.50;;;;;;;-146.25;100.00;57403.91;5090486;28;20197;-81
2023/06/13 12:17:07;;;;;;;6.93;4.88;;;;;;;-146.25;100.00;57403.91;5089893;28;20287;-82
2023/06/13 12:19:35;;;;;;;8.05;4.57;;;;;;;-146.25;100.00;57403.91;5089813;28;20210;-82
2023/06/13 12:22:04;;;;;;;6.35;4.25;;;;;;;-146.25;100.00;57403.91;5089862;28;20213;-81
2023/06/13 12:24:31;;;;;;;6.55;5.40;;;;;;;-146.25;100.00;57403.91;5089521;28;20224;-82
2023/06/13 12:26:58;;;;;;;6.60;4.40;;;;;;;-146.25;100.00;57403.91;5089552;28;20749;-82
2023/06/13 12:29:27;;;;;;;5.63;4.55;;;;;;;-146.25;100.00;57403.91;5092421;28;20198;-82
2023/06/13 12:32:04;;;;;;;7.03;4.78;;;;;;;-146.25;100.00;57403.91;5091588;28;20231;-83
2023/06/13 12:34:33;;;;;;;3.90;3.47;;;;;;;-146.25;100.00;57403.91;5092112;28;20193;-82
2023/06/13 12:37:03;;;;;;;4.50;3.63;;;;;;;-146.25;100.00;57403.91;5089970;28;20226;-81
2023/06/13 12:39:32;;;;;;;4.95;3.78;;;;;;;-146.25;100.00;57403.91;5079722;28;20268;-82
2023/06/13 12:42:02;;;;;;;3.55;2.83;;;;;;;-146.25;100.00;57403.91;5088082;28;20633;-81